createdAt,value
2024-02-10T00:01:39.399Z,25.10
2024-02-10T00:04:07.017Z,21.30
2024-02-10T00:06:34.627Z,22.20
2024-02-10T00:09:02.443Z,20.30
2024-02-10T00:11:30.199Z,19.90
2024-02-10T00:13:57.885Z,21.10
2024-02-10T00:16:25.552Z,22.60
2024-02-10T00:18:53.197Z,18.80
2024-02-10T00:21:21.248Z,21.80
2024-02-10T00:23:48.802Z,22.50
2024-02-10T00:26:16.370Z,18.40
2024-02-10T00:28:44.099Z,16.90
2024-02-10T00:31:11.758Z,15.60
2024-02-10T00:33:39.481Z,18.30
2024-02-10T00:36:07.116Z,15.40
2024-02-10T00:38:34.779Z,15.10
2024-02-10T00:41:02.391Z,16.50
2024-02-10T00:43:30.118Z,15.80
2024-02-10T00:45:58.169Z,14.50
2024-02-10T00:48:25.945Z,16.00
2024-02-10T00:50:53.597Z,15.30
2024-02-10T00:53:21.151Z,15.10
2024-02-10T00:55:48.798Z,17.20
2024-02-10T00:58:16.514Z,18.20
2024-02-10T01:00:44.155Z,21.30
2024-02-10T01:03:11.838Z,29.80
2024-02-10T01:05:39.536Z,16.10
2024-02-10T01:08:07.566Z,16.20
2024-02-10T01:10:35.784Z,21.70
2024-02-10T01:13:03.473Z,13.10
2024-02-10T01:15:31.134Z,16.00
2024-02-10T01:17:58.798Z,15.30
2024-02-10T01:20:26.572Z,17.30
2024-02-10T01:22:54.255Z,13.50
2024-02-10T01:25:21.903Z,15.20
2024-02-10T01:27:49.648Z,14.80
2024-02-10T01:30:17.204Z,13.50
2024-02-10T01:32:44.901Z,13.20
2024-02-10T01:35:12.464Z,13.50
2024-02-10T01:37:40.613Z,13.90
2024-02-10T01:40:08.386Z,12.00
2024-02-10T01:42:35.967Z,15.30
2024-02-10T01:45:03.580Z,19.40
2024-02-10T01:47:31.174Z,26.50
2024-02-10T01:49:58.885Z,15.70
2024-02-10T01:52:26.592Z,19.20
2024-02-10T01:54:54.335Z,21.00
2024-02-10T01:57:21.890Z,32.00
2024-02-10T01:59:49.765Z,33.40
2024-02-10T02:02:17.332Z,34.60
2024-02-10T02:04:44.906Z,29.70
2024-02-10T02:07:12.863Z,16.70
2024-02-10T02:09:40.626Z,17.40
2024-02-10T02:12:08.164Z,18.10
2024-02-10T02:14:35.725Z,17.60
2024-02-10T02:17:03.295Z,17.80
2024-02-10T02:19:30.973Z,17.00
2024-02-10T02:21:58.509Z,16.20
2024-02-10T02:24:26.080Z,14.90
2024-02-10T02:26:54.032Z,14.90
2024-02-10T02:29:21.693Z,19.10
2024-02-10T02:31:49.384Z,13.20
2024-02-10T02:34:16.999Z,12.60
2024-02-10T02:36:44.793Z,13.10
2024-02-10T02:39:12.342Z,13.00
2024-02-10T02:41:40.216Z,12.20
2024-02-10T02:44:07.763Z,10.70
2024-02-10T02:46:35.490Z,11.70
2024-02-10T02:49:03.274Z,10.40
2024-02-10T02:51:31.281Z,10.50
2024-02-10T02:53:58.974Z,10.60
2024-02-10T02:56:26.491Z,11.30
2024-02-10T02:58:54.253Z,9.80
2024-02-10T03:01:22.047Z,10.30
2024-02-10T03:03:49.804Z,11.80
2024-02-10T03:06:17.469Z,12.20
2024-02-10T03:08:45.099Z,10.00
2024-02-10T03:11:12.659Z,10.00
2024-02-10T03:13:40.353Z,9.40
2024-02-10T03:16:08.086Z,9.30
2024-02-10T03:18:36.087Z,9.40
2024-02-10T03:21:03.714Z,10.00
2024-02-10T03:23:31.274Z,10.30
2024-02-10T03:25:58.960Z,11.90
2024-02-10T03:28:26.629Z,11.60
2024-02-10T03:30:54.366Z,11.80
2024-02-10T03:33:22.086Z,11.30
2024-02-10T03:35:49.837Z,9.50
2024-02-10T03:38:17.548Z,8.40
2024-02-10T03:40:45.159Z,9.20
2024-02-10T03:43:12.945Z,11.80
2024-02-10T03:45:40.637Z,9.50
2024-02-10T03:48:08.374Z,10.30
2024-02-10T03:50:36.062Z,13.80
2024-02-10T03:53:03.753Z,10.70
2024-02-10T03:55:31.583Z,9.80
2024-02-10T03:57:59.353Z,11.60
2024-02-10T04:00:26.920Z,10.20
2024-02-10T04:02:54.573Z,10.60
2024-02-10T04:05:22.173Z,10.00
2024-02-10T04:07:50.859Z,9.50
2024-02-10T04:10:18.942Z,9.50
2024-02-10T04:12:46.658Z,9.20
2024-02-10T04:15:14.217Z,10.30
2024-02-10T04:17:41.955Z,8.70
2024-02-10T04:20:09.773Z,8.50
2024-02-10T04:22:37.337Z,8.20
2024-02-10T04:25:05.057Z,10.30
2024-02-10T04:27:32.637Z,9.10
2024-02-10T04:30:00.389Z,9.70
2024-02-10T04:32:28.005Z,9.10
2024-02-10T04:34:56.210Z,9.80
2024-02-10T04:37:23.893Z,8.30
2024-02-10T04:39:51.656Z,8.60
2024-02-10T04:42:19.421Z,8.50
2024-02-10T04:44:47.075Z,8.00
2024-02-10T04:47:14.639Z,7.70
2024-02-10T04:49:42.258Z,9.20
2024-02-10T04:52:09.963Z,11.60
2024-02-10T04:54:37.626Z,7.90
2024-02-10T04:57:05.590Z,15.00
2024-02-10T04:59:33.252Z,17.60
2024-02-10T05:02:00.852Z,14.50
2024-02-10T05:04:28.610Z,14.50
2024-02-10T05:06:56.228Z,13.90
2024-02-10T05:09:23.908Z,9.10
2024-02-10T05:11:51.559Z,15.80
2024-02-10T05:14:19.222Z,13.80
2024-02-10T05:16:46.827Z,12.40
2024-02-10T05:19:14.677Z,11.40
2024-02-10T05:21:42.412Z,11.90
2024-02-10T05:24:10.276Z,10.90
2024-02-10T05:26:37.946Z,17.80
2024-02-10T05:29:05.595Z,16.00
2024-02-10T05:31:33.190Z,10.40
2024-02-10T05:34:00.897Z,8.20
2024-02-10T05:36:28.681Z,11.00
2024-02-10T05:38:56.353Z,10.40
2024-02-10T05:41:24.020Z,7.90
2024-02-10T05:43:51.785Z,8.90
2024-02-10T05:46:19.538Z,10.70
2024-02-10T05:48:47.546Z,10.40
2024-02-10T05:51:15.168Z,8.90
2024-02-10T05:53:42.828Z,8.70
2024-02-10T05:56:10.616Z,9.70
2024-02-10T05:58:38.527Z,17.80
2024-02-10T06:01:06.232Z,28.10
2024-02-10T06:03:33.806Z,96.20
2024-02-10T06:06:01.582Z,139.60
2024-02-10T06:08:29.205Z,35.00
2024-02-10T06:10:56.951Z,160.10
2024-02-10T06:13:24.670Z,184.60
2024-02-10T06:15:52.706Z,216.80
2024-02-10T06:18:20.258Z,128.10
2024-02-10T06:20:47.920Z,129.10
2024-02-10T06:23:15.690Z,116.20
2024-02-10T06:25:44.318Z,73.30
2024-02-10T06:28:12.240Z,60.00
2024-02-10T06:30:39.798Z,67.10
2024-02-10T06:33:07.600Z,34.80
2024-02-10T06:35:35.223Z,19.30
2024-02-10T06:38:02.965Z,92.80
2024-02-10T06:40:30.696Z,205.80
2024-02-10T06:42:58.821Z,136.00
2024-02-10T06:45:26.646Z,85.20
2024-02-10T06:47:54.655Z,32.30
2024-02-10T06:50:22.529Z,20.80
2024-02-10T06:52:50.350Z,16.90
2024-02-10T06:55:18.143Z,29.70
2024-02-10T06:57:45.921Z,48.80
2024-02-10T07:00:13.479Z,37.70
2024-02-10T07:02:41.041Z,45.70
2024-02-10T07:05:09.074Z,37.10
2024-02-10T07:07:36.881Z,30.60
2024-02-10T07:10:04.539Z,27.50
2024-02-10T07:12:32.304Z,26.90
2024-02-10T07:14:59.959Z,26.70
2024-02-10T07:17:27.549Z,29.40
2024-02-10T07:19:55.192Z,25.90
2024-02-10T07:22:22.958Z,35.10
2024-02-10T07:24:50.504Z,45.50
2024-02-10T07:27:18.071Z,43.70
2024-02-10T07:29:45.629Z,48.30
2024-02-10T07:32:13.586Z,39.20
2024-02-10T07:34:41.272Z,44.90
2024-02-10T07:37:08.916Z,29.70
2024-02-10T07:39:36.587Z,32.00
2024-02-10T07:42:04.126Z,28.70
2024-02-10T07:44:31.785Z,21.00
2024-02-10T07:46:59.488Z,20.80
2024-02-10T07:49:27.121Z,17.50
2024-02-10T07:51:54.675Z,18.00
2024-02-10T07:54:22.236Z,16.90
2024-02-10T07:56:49.907Z,17.60
2024-02-10T07:59:17.824Z,15.40
2024-02-10T08:01:45.772Z,16.70
2024-02-10T08:04:13.491Z,17.10
2024-02-10T08:06:41.259Z,25.60
2024-02-10T08:09:08.921Z,19.90
2024-02-10T08:11:36.580Z,21.30
2024-02-10T08:14:04.229Z,23.30
2024-02-10T08:16:32.279Z,26.50
2024-02-10T08:18:59.997Z,25.90
2024-02-10T08:21:28.058Z,22.90
2024-02-10T08:23:55.608Z,20.70
2024-02-10T08:26:23.187Z,20.40
2024-02-10T08:28:50.863Z,21.00
2024-02-10T08:31:18.644Z,18.80
2024-02-10T08:33:46.394Z,21.70
2024-02-10T08:36:14.232Z,23.80
2024-02-10T08:38:41.780Z,23.20
2024-02-10T08:41:09.470Z,21.60
2024-02-10T08:43:37.249Z,25.10
2024-02-10T08:46:05.188Z,23.50
2024-02-10T08:48:32.900Z,22.20
2024-02-10T08:51:00.708Z,18.30
2024-02-10T08:53:28.279Z,21.50
2024-02-10T08:55:55.938Z,16.50
2024-02-10T08:58:23.527Z,17.20
2024-02-10T09:00:51.271Z,18.20
2024-02-10T09:03:18.965Z,18.30
2024-02-10T09:05:46.675Z,15.70
2024-02-10T09:08:14.269Z,15.60
2024-02-10T09:10:42.229Z,14.60
2024-02-10T09:13:09.843Z,14.10
2024-02-10T09:15:37.627Z,13.80
2024-02-10T09:18:05.309Z,15.80
2024-02-10T09:20:32.942Z,10.50
2024-02-10T09:23:00.694Z,13.20
2024-02-10T09:25:28.480Z,15.60
2024-02-10T09:27:56.450Z,14.70
2024-02-10T09:30:24.009Z,11.50
2024-02-10T09:32:51.717Z,11.70
2024-02-10T09:35:25.513Z,11.00
2024-02-10T09:38:00.463Z,11.70
2024-02-10T09:40:28.225Z,10.70
2024-02-10T09:42:56.037Z,10.50
2024-02-10T09:45:24.109Z,9.40
2024-02-10T09:47:51.877Z,9.80
2024-02-10T09:50:30.835Z,8.50
2024-02-10T09:53:02.548Z,8.10
2024-02-10T10:00:25.439Z,7.70
2024-02-10T10:02:53.111Z,11.00
2024-02-10T10:07:48.752Z,7.40
2024-02-10T10:10:16.390Z,8.00
2024-02-10T10:15:11.609Z,5.60
2024-02-10T10:20:07.101Z,7.70
2024-02-10T10:22:35.225Z,8.90
2024-02-10T10:25:02.874Z,8.10
2024-02-10T10:29:58.134Z,7.90
2024-02-10T10:32:25.957Z,9.90
2024-02-10T10:34:53.651Z,9.60
2024-02-10T10:37:21.314Z,7.50
2024-02-10T10:39:49.035Z,7.50
2024-02-10T10:42:16.600Z,7.70
2024-02-10T10:44:44.258Z,8.40
2024-02-10T10:47:12.254Z,9.80
2024-02-10T10:49:40.035Z,9.30
2024-02-10T10:52:07.761Z,7.10
2024-02-10T10:54:35.904Z,6.80
2024-02-10T10:57:04.101Z,7.50
2024-02-10T10:59:31.766Z,10.40
2024-02-10T11:01:59.341Z,7.70
2024-02-10T11:04:26.996Z,7.50
2024-02-10T11:06:54.550Z,13.30
2024-02-10T11:09:22.233Z,8.10
2024-02-10T11:11:50.176Z,9.20
2024-02-10T11:14:17.732Z,5.80
2024-02-10T11:16:45.514Z,6.00
2024-02-10T11:19:16.418Z,4.50
2024-02-10T11:21:45.119Z,8.30
2024-02-10T11:24:12.865Z,8.60
2024-02-10T11:26:41.040Z,8.10
2024-02-10T11:29:08.954Z,7.10
2024-02-10T11:31:36.680Z,7.00
2024-02-10T11:34:04.522Z,6.60
2024-02-10T11:36:32.220Z,5.80
2024-02-10T11:39:00.088Z,5.00
2024-02-10T11:41:27.654Z,5.00
2024-02-10T11:43:55.337Z,5.50
2024-02-10T11:46:23.082Z,7.40
2024-02-10T11:48:50.690Z,5.90
2024-02-10T11:51:18.522Z,5.40
2024-02-10T11:53:46.078Z,6.60
2024-02-10T11:56:13.962Z,10.40
2024-02-10T11:58:41.741Z,9.10
2024-02-10T12:01:09.524Z,7.70
2024-02-10T12:03:37.516Z,7.00
2024-02-10T12:06:05.293Z,9.30
2024-02-10T12:08:32.948Z,9.00
2024-02-10T12:11:00.775Z,7.00
2024-02-10T12:13:28.920Z,5.30
2024-02-10T12:15:56.648Z,4.50
2024-02-10T12:18:24.338Z,6.60
2024-02-10T12:20:51.873Z,5.80
2024-02-10T12:23:19.530Z,5.60
2024-02-10T12:25:47.239Z,7.70
2024-02-10T12:28:15.056Z,5.60
2024-02-10T12:30:43.028Z,4.60
2024-02-10T12:33:10.617Z,4.20
2024-02-10T12:35:38.349Z,4.00
2024-02-10T12:38:05.975Z,4.70
2024-02-10T12:40:33.784Z,4.70
2024-02-10T12:43:01.437Z,9.40
2024-02-10T12:45:28.996Z,7.70
2024-02-10T12:47:56.729Z,6.20
2024-02-10T12:50:24.536Z,5.50
2024-02-10T12:52:52.262Z,11.00
2024-02-10T12:55:20.149Z,9.40
2024-02-10T12:57:47.712Z,5.00
2024-02-10T13:00:15.272Z,5.40
2024-02-10T13:02:42.831Z,5.60
2024-02-10T13:05:10.547Z,4.80
2024-02-10T13:07:38.186Z,4.60
2024-02-10T13:10:05.918Z,4.30
2024-02-10T13:12:33.477Z,5.50
2024-02-10T13:15:01.154Z,4.60
2024-02-10T13:17:28.780Z,3.50
2024-02-10T13:22:25.165Z,4.00
2024-02-10T13:24:52.826Z,4.50
2024-02-10T13:27:20.476Z,5.60
2024-02-10T13:29:48.027Z,5.10
2024-02-10T13:32:15.722Z,3.80
2024-02-10T13:34:55.617Z,5.80
2024-02-10T13:37:30.910Z,2.90
2024-02-10T13:39:58.439Z,3.90
2024-02-10T13:42:26.522Z,4.00
2024-02-10T13:44:54.174Z,3.80
2024-02-10T13:47:21.840Z,4.00
2024-02-10T13:49:50.053Z,3.40
2024-02-10T13:54:45.356Z,4.50
2024-02-10T13:57:12.889Z,4.90
2024-02-10T13:59:40.685Z,5.60
2024-02-10T14:02:08.313Z,10.70
2024-02-10T14:04:36.541Z,8.80
2024-02-10T14:07:04.358Z,4.20
2024-02-10T14:09:31.917Z,7.50
2024-02-10T14:11:59.582Z,9.00
2024-02-10T14:14:27.144Z,6.00
2024-02-10T14:16:54.819Z,10.20
2024-02-10T14:19:22.495Z,8.10
2024-02-10T14:21:50.242Z,8.60
2024-02-10T14:24:17.956Z,13.60
2024-02-10T14:26:45.649Z,11.80
2024-02-10T14:29:13.314Z,9.50
2024-02-10T14:31:41.308Z,4.80
2024-02-10T14:34:09.023Z,5.50
2024-02-10T14:36:36.721Z,6.40
2024-02-10T14:39:04.482Z,6.70
2024-02-10T14:41:32.039Z,9.90
2024-02-10T14:43:59.742Z,6.10
2024-02-10T14:46:27.580Z,5.30
2024-02-10T14:48:55.188Z,6.30
2024-02-10T14:51:22.885Z,4.90
2024-02-10T14:53:50.436Z,5.60
2024-02-10T14:56:17.904Z,8.20
2024-02-10T14:58:45.548Z,12.50
2024-02-10T15:01:13.257Z,11.60
2024-02-10T15:03:40.909Z,12.80
2024-02-10T15:06:08.656Z,9.90
2024-02-10T15:08:36.223Z,11.30
2024-02-10T15:11:03.983Z,8.50
2024-02-10T15:13:31.804Z,10.10
2024-02-10T15:15:59.398Z,9.10
2024-02-10T15:18:27.128Z,9.10
2024-02-10T15:20:54.824Z,11.00
2024-02-10T15:23:22.785Z,10.70
2024-02-10T15:25:50.370Z,7.90
2024-02-10T15:28:18.004Z,9.40
2024-02-10T15:30:45.570Z,6.10
2024-02-10T15:33:13.319Z,6.10
2024-02-10T15:35:41.024Z,7.40
2024-02-10T15:38:08.659Z,7.90
2024-02-10T15:40:36.251Z,8.50
2024-02-10T15:43:03.886Z,7.50
2024-02-10T15:45:31.570Z,6.80
2024-02-10T15:47:59.526Z,14.20
2024-02-10T15:50:27.270Z,10.90
2024-02-10T15:52:54.966Z,14.10
2024-02-10T15:55:22.918Z,22.00
2024-02-10T15:57:50.796Z,11.50
2024-02-10T16:00:18.654Z,11.80
2024-02-10T16:02:46.465Z,11.80
2024-02-10T16:05:14.385Z,10.60
2024-02-10T16:07:42.391Z,11.40
2024-02-10T16:10:10.205Z,14.60
2024-02-10T16:12:38.528Z,9.40
2024-02-10T16:15:06.683Z,31.40
2024-02-10T16:17:34.573Z,21.20
2024-02-10T16:20:02.576Z,19.30
2024-02-10T16:22:30.587Z,23.80
2024-02-10T16:24:58.368Z,27.70
2024-02-10T16:27:26.411Z,28.10
2024-02-10T16:29:54.187Z,18.20
2024-02-10T16:32:22.125Z,22.40
2024-02-10T16:34:50.093Z,19.10
2024-02-10T16:37:17.929Z,29.90
2024-02-10T16:39:46.265Z,44.60
2024-02-10T16:42:14.119Z,60.80
2024-02-10T16:44:41.995Z,40.40
2024-02-10T16:47:10.062Z,23.60
2024-02-10T16:49:38.835Z,24.60
2024-02-10T16:52:06.690Z,24.40
2024-02-10T16:54:34.670Z,17.60
2024-02-10T16:57:02.548Z,12.40
2024-02-10T16:59:30.536Z,23.50
2024-02-10T17:01:58.923Z,15.70
2024-02-10T17:04:27.049Z,14.00
2024-02-10T17:06:55.031Z,13.00
2024-02-10T17:09:23.323Z,15.50
2024-02-10T17:11:51.276Z,16.90
2024-02-10T17:14:19.247Z,18.50
2024-02-10T17:16:47.274Z,14.60
2024-02-10T17:19:15.356Z,14.80
2024-02-10T17:21:43.269Z,23.90
2024-02-10T17:24:11.236Z,20.80
2024-02-10T17:26:39.453Z,52.80
2024-02-10T17:29:07.813Z,36.90
2024-02-10T17:31:35.964Z,33.50
2024-02-10T17:34:03.908Z,29.70
2024-02-10T17:36:31.882Z,19.60
2024-02-10T17:38:59.857Z,20.80
2024-02-10T17:41:27.706Z,21.80
2024-02-10T17:43:55.738Z,18.90
2024-02-10T17:46:23.848Z,17.60
2024-02-10T17:48:51.773Z,16.70
2024-02-10T17:51:19.914Z,12.90
2024-02-10T17:53:48.402Z,21.40
2024-02-10T17:56:16.354Z,24.40
2024-02-10T17:58:44.456Z,40.00
2024-02-10T18:01:12.463Z,44.70
2024-02-10T18:03:40.355Z,54.50
2024-02-10T18:06:08.535Z,40.00
2024-02-10T18:08:36.590Z,43.50
